Time;durP1;ratioP1;P1;durP2;ratioP2;P2;SDS_P1;SDS_P2;PMS_P1;PMS_P2;Temp;Humidity;BMP_temperature;BMP_pressure;BME280_temperature;BME280_humidity;BME280_pressure;Samples;Min_cycle;Max_cycle;Signal;HPM_P1;HPM_P2
2021/12/10 00:02:32;;;;;;;;;;;4.40;84.50;;;;;;5009369;28;19920;-79
2021/12/10 00:04:57;;;;;;;;;;;4.20;85.10;;;;;;5009960;28;19960;-79
2021/12/10 00:07:24;;;;;;;;;;;4.10;84.90;;;;;;5010419;28;19917;-79
2021/12/10 00:09:52;;;;;;;;;;;4.10;85.40;;;;;;5011574;28;19945;-79
2021/12/10 00:12:19;;;;;;;;;;;4.00;85.70;;;;;;5011325;28;19913;-80
2021/12/10 00:14:45;;;;;;;;;;;4.00;86.00;;;;;;5009260;28;19917;-79
2021/12/10 00:17:11;;;;;;;;;;;4.00;85.60;;;;;;5010772;28;19913;-80
2021/12/10 00:19:45;;;;;;;;;;;4.10;85.60;;;;;;5007514;28;20301;-79
2021/12/10 00:22:13;;;;;;;;;;;3.90;85.60;;;;;;5007330;28;19910;-79
2021/12/10 00:24:39;;;;;;;;;;;3.90;85.80;;;;;;5010340;28;19929;-80
2021/12/10 00:27:07;;;;;;;;;;;4.10;85.80;;;;;;5011453;28;19913;-79
2021/12/10 00:29:34;;;;;;;;;;;4.00;85.30;;;;;;5011684;28;19925;-80
2021/12/10 00:32:03;;;;;;;;;;;4.10;85.60;;;;;;5013852;28;19940;-79
2021/12/10 00:34:30;;;;;;;;;;;4.20;84.70;;;;;;5027465;28;19914;-79
2021/12/10 00:36:58;;;;;;;;;;;4.10;85.10;;;;;;5027496;28;19921;-80
2021/12/10 00:39:27;;;;;;;;;;;4.10;85.10;;;;;;5026596;28;19970;-79
2021/12/10 00:41:53;;;;;;;;;;;4.10;84.70;;;;;;5011144;28;19921;-79
2021/12/10 00:44:19;;;;;;;;;;;4.10;84.90;;;;;;5026676;28;19910;-79
2021/12/10 00:46:44;;;;;;;;;;;4.20;84.60;;;;;;5015265;28;19921;-78
2021/12/10 00:49:10;;;;;;;;;;;4.20;84.80;;;;;;5014637;28;19936;-78
2021/12/10 00:51:36;;;;;;;;;;;4.20;84.40;;;;;;5017910;28;19941;-79
2021/12/10 00:54:02;;;;;;;;;;;4.10;85.00;;;;;;5018129;28;19960;-80
2021/12/10 00:56:27;;;;;;;;;;;4.20;84.30;;;;;;5016408;28;19921;-79
2021/12/10 00:58:53;;;;;;;;;;;4.20;84.30;;;;;;5016789;28;20109;-79
2021/12/10 01:01:21;;;;;;;;;;;4.10;84.10;;;;;;5017985;28;19983;-79
2021/12/10 01:03:49;;;;;;;;;;;3.80;85.10;;;;;;5033910;28;19918;-79
2021/12/10 01:06:16;;;;;;;;;;;3.80;85.20;;;;;;5015053;28;19910;-78
2021/12/10 01:08:43;;;;;;;;;;;4.00;85.00;;;;;;5011618;28;20006;-78
2021/12/10 01:11:16;;;;;;;;;;;4.00;85.00;;;;;;5011779;28;19940;-79
2021/12/10 01:13:45;;;;;;;;;;;4.00;84.90;;;;;;5012165;28;20385;-79
2021/12/10 01:27:13;;;;;;;;;;;4.30;84.90;;;;;;5018495;28;19920;-78
2021/12/10 01:29:43;;;;;;;;;;;4.40;84.40;;;;;;5017794;28;19921;-78
2021/12/10 01:32:13;;;;;;;;;;;4.60;83.70;;;;;;5018481;28;20525;-79
2021/12/10 01:34:38;;;;;;;;;;;4.60;83.40;;;;;;5016544;28;19913;-79
2021/12/10 01:37:04;;;;;;;;;;;4.70;83.00;;;;;;5017427;28;19920;-79
2021/12/10 01:39:31;;;;;;;;;;;4.70;83.00;;;;;;5017375;28;19917;-78
2021/12/10 01:42:12;;;;;;;;;;;4.80;82.50;;;;;;5016785;28;19953;-79
2021/12/10 01:44:42;;;;;;;;;;;4.90;82.30;;;;;;5015786;28;19932;-78
2021/12/10 01:47:08;;;;;;;;;;;4.80;82.30;;;;;;5017682;28;19922;-78
2021/12/10 01:49:36;;;;;;;;;;;4.70;82.70;;;;;;5015470;28;19964;-79
2021/12/10 01:52:03;;;;;;;;;;;4.70;82.90;;;;;;5016537;28;19957;-79
2021/12/10 01:54:30;;;;;;;;;;;4.70;82.90;;;;;;5016857;28;20393;-79
2021/12/10 01:56:56;;;;;;;;;;;4.70;82.40;;;;;;5034149;28;19953;-80
2021/12/10 01:59:24;;;;;;;;;;;4.70;82.50;;;;;;5016866;28;19956;-79
2021/12/10 02:01:51;;;;;;;;;;;4.60;83.00;;;;;;5019860;28;19956;-79
2021/12/10 02:04:18;;;;;;;;;;;4.80;82.50;;;;;;5013349;28;19913;-79
2021/12/10 02:06:44;;;;;;;;;;;4.90;81.90;;;;;;5016015;28;19921;-78
2021/12/10 02:09:10;;;;;;;;;;;4.80;82.10;;;;;;5017826;28;19928;-78
2021/12/10 02:11:36;;;;;;;;;;;4.70;82.40;;;;;;5032920;28;19914;-79
2021/12/10 02:14:02;;;;;;;;;;;4.90;82.00;;;;;;5017509;28;19971;-79
2021/12/10 02:16:28;;;;;;;;;;;4.80;81.70;;;;;;5018235;28;20497;-79
2021/12/10 02:18:54;;;;;;;;;;;4.80;81.40;;;;;;5018382;28;19917;-79
2021/12/10 02:21:21;;;;;;;;;;;4.70;81.90;;;;;;5021162;28;20366;-79
2021/12/10 02:23:50;;;;;;;;;;;4.70;81.70;;;;;;5016990;28;19983;-80
2021/12/10 02:26:16;;;;;;;;;;;4.60;81.80;;;;;;5017728;28;19960;-79
2021/12/10 02:28:42;;;;;;;;;;;4.50;81.90;;;;;;5004614;28;19918;-80
2021/12/10 02:31:09;;;;;;;;;;;4.40;82.60;;;;;;5018453;28;19917;-80
2021/12/10 02:33:35;;;;;;;;;;;4.30;82.50;;;;;;5019500;28;20374;-79
2021/12/10 02:36:00;;;;;;;;;;;4.30;82.80;;;;;;5016820;28;20386;-79
2021/12/10 02:38:26;;;;;;;;;;;4.30;82.20;;;;;;5011993;28;19921;-78
2021/12/10 02:40:54;;;;;;;;;;;4.40;81.60;;;;;;5014321;28;20348;-79
2021/12/10 02:43:21;;;;;;;;;;;4.40;81.60;;;;;;5012963;28;19914;-78
2021/12/10 02:45:47;;;;;;;;;;;4.30;82.30;;;;;;5013930;28;19913;-78
2021/12/10 02:48:13;;;;;;;;;;;4.10;82.90;;;;;;5013862;28;19917;-78
2021/12/10 02:50:39;;;;;;;;;;;4.20;83.00;;;;;;5011732;28;19914;-79
2021/12/10 02:53:06;;;;;;;;;;;4.40;82.10;;;;;;5013452;28;19948;-78
2021/12/10 02:55:32;;;;;;;;;;;4.40;81.50;;;;;;5012443;28;20327;-79
2021/12/10 02:57:59;;;;;;;;;;;4.40;81.30;;;;;;5014148;28;19944;-79
2021/12/10 03:00:27;;;;;;;;;;;4.40;80.90;;;;;;5012256;28;19983;-79
2021/12/10 03:02:52;;;;;;;;;;;4.40;80.90;;;;;;5015518;28;19910;-80
2021/12/10 03:05:18;;;;;;;;;;;4.30;81.60;;;;;;5014020;28;19920;-79
2021/12/10 03:07:44;;;;;;;;;;;4.40;81.30;;;;;;5005682;28;19914;-79
2021/12/10 03:10:13;;;;;;;;;;;4.40;81.30;;;;;;5015347;28;19913;-79
2021/12/10 03:12:39;;;;;;;;;;;4.40;80.80;;;;;;5014902;28;19913;-79
2021/12/10 03:15:06;;;;;;;;;;;4.50;80.30;;;;;;5017960;28;19918;-78
2021/12/10 03:17:31;;;;;;;;;;;4.40;80.90;;;;;;5016776;28;19916;-79
2021/12/10 03:19:58;;;;;;;;;;;4.20;81.00;;;;;;5014331;28;19969;-79
2021/12/10 03:22:24;;;;;;;;;;;4.40;80.50;;;;;;5014261;28;19910;-79
2021/12/10 03:24:53;;;;;;;;;;;4.40;79.80;;;;;;5015890;28;19967;-79
2021/12/10 03:27:20;;;;;;;;;;;4.30;80.00;;;;;;5017275;28;20017;-79
2021/12/10 03:29:46;;;;;;;;;;;4.20;80.70;;;;;;5011931;28;19918;-78
2021/12/10 03:32:17;;;;;;;;;;;4.30;80.00;;;;;;5010974;28;19930;-78
2021/12/10 03:34:43;;;;;;;;;;;4.40;79.30;;;;;;5013537;28;19972;-79
2021/12/10 03:37:08;;;;;;;;;;;4.30;79.60;;;;;;5013429;28;19913;-78
2021/12/10 03:39:35;;;;;;;;;;;4.10;81.10;;;;;;5012454;28;19928;-79
2021/12/10 03:42:00;;;;;;;;;;;4.20;80.40;;;;;;5013267;28;20378;-79
2021/12/10 03:44:27;;;;;;;;;;;4.20;80.00;;;;;;5028841;28;19960;-78
2021/12/10 03:46:53;;;;;;;;;;;4.10;80.70;;;;;;5008103;28;20346;-78
2021/12/10 03:49:19;;;;;;;;;;;4.10;80.30;;;;;;4999824;28;19910;-79
2021/12/10 03:51:44;;;;;;;;;;;4.00;80.50;;;;;;5011532;28;19924;-79
2021/12/10 03:54:11;;;;;;;;;;;4.00;80.70;;;;;;5013513;28;19953;-79
2021/12/10 03:56:38;;;;;;;;;;;4.00;81.00;;;;;;5014671;28;19964;-78
2021/12/10 03:59:05;;;;;;;;;;;3.90;80.70;;;;;;5013085;28;19979;-79
2021/12/10 04:01:34;;;;;;;;;;;3.90;81.40;;;;;;5015101;28;19914;-78
2021/12/10 04:04:01;;;;;;;;;;;4.00;81.00;;;;;;5012225;28;19920;-78
2021/12/10 04:06:27;;;;;;;;;;;3.80;81.20;;;;;;5010731;28;19920;-78
2021/12/10 04:08:53;;;;;;;;;;;3.80;81.30;;;;;;5011498;28;19957;-79
2021/12/10 04:11:19;;;;;;;;;;;3.80;81.70;;;;;;5002077;28;19924;-79
2021/12/10 04:13:46;;;;;;;;;;;3.80;81.40;;;;;;5010393;28;19914;-80
2021/12/10 04:16:11;;;;;;;;;;;3.60;81.10;;;;;;5011713;28;19913;-78
2021/12/10 04:18:37;;;;;;;;;;;3.70;81.20;;;;;;5011527;28;19918;-79
2021/12/10 04:21:04;;;;;;;;;;;3.80;81.40;;;;;;5011707;28;19917;-78
2021/12/10 04:23:30;;;;;;;;;;;3.70;81.50;;;;;;5013657;28;20408;-79
2021/12/10 04:25:55;;;;;;;;;;;3.70;81.70;;;;;;5012990;28;19913;-80
2021/12/10 04:28:21;;;;;;;;;;;3.70;81.40;;;;;;5010497;28;20348;-79
2021/12/10 04:30:47;;;;;;;;;;;3.70;81.00;;;;;;5006934;28;19997;-79
2021/12/10 04:33:15;;;;;;;;;;;3.70;81.60;;;;;;5011888;28;20378;-79
2021/12/10 04:35:42;;;;;;;;;;;3.70;81.50;;;;;;5012571;28;19925;-78
2021/12/10 04:38:07;;;;;;;;;;;3.70;81.70;;;;;;5012140;28;19914;-78
2021/12/10 04:40:33;;;;;;;;;;;3.60;81.50;;;;;;5011426;28;19913;-79
2021/12/10 04:42:59;;;;;;;;;;;3.60;81.30;;;;;;5010655;28;19960;-79
2021/12/10 04:45:24;;;;;;;;;;;3.60;82.20;;;;;;5010294;28;20376;-78
2021/12/10 04:47:50;;;;;;;;;;;3.70;81.40;;;;;;5010612;28;19918;-79
2021/12/10 04:50:17;;;;;;;;;;;3.60;81.90;;;;;;5008999;28;20385;-79
2021/12/10 04:52:43;;;;;;;;;;;3.50;81.70;;;;;;5005147;28;19924;-79
2021/12/10 04:55:10;;;;;;;;;;;3.50;82.30;;;;;;5009312;28;19921;-79
2021/12/10 04:57:35;;;;;;;;;;;3.60;82.30;;;;;;5026004;28;19914;-79
2021/12/10 05:00:04;;;;;;;;;;;3.60;82.10;;;;;;5008467;28;19923;-78
2021/12/10 05:02:30;;;;;;;;;;;3.60;82.00;;;;;;5012689;28;19920;-79
2021/12/10 05:04:57;;;;;;;;;;;3.70;82.00;;;;;;5010644;28;19913;-79
2021/12/10 05:07:23;;;;;;;;;;;3.60;81.80;;;;;;5012167;28;19921;-78
2021/12/10 05:09:49;;;;;;;;;;;3.60;81.60;;;;;;5011368;28;19913;-79
2021/12/10 05:12:14;;;;;;;;;;;3.70;82.00;;;;;;5009942;28;19913;-79
2021/12/10 05:14:40;;;;;;;;;;;3.70;81.70;;;;;;5009361;28;19918;-78
2021/12/10 05:17:08;;;;;;;;;;;3.80;81.50;;;;;;5010632;28;19920;-79
2021/12/10 05:19:35;;;;;;;;;;;3.80;81.40;;;;;;5009543;28;19917;-79
2021/12/10 05:22:01;;;;;;;;;;;3.70;81.50;;;;;;5010784;28;19909;-79
2021/12/10 05:24:27;;;;;;;;;;;3.70;81.50;;;;;;5011206;28;19914;-78
2021/12/10 05:26:53;;;;;;;;;;;3.70;81.70;;;;;;5012024;28;19917;-79
2021/12/10 05:29:19;;;;;;;;;;;3.60;81.70;;;;;;5007820;28;19914;-80
2021/12/10 05:31:45;;;;;;;;;;;3.60;81.30;;;;;;4997810;28;19921;-80
2021/12/10 05:34:11;;;;;;;;;;;3.40;81.30;;;;;;5011914;28;20350;-79
2021/12/10 05:36:37;;;;;;;;;;;3.60;81.80;;;;;;5010954;28;19913;-79
2021/12/10 05:39:03;;;;;;;;;;;3.60;81.70;;;;;;5010575;28;20016;-79
2021/12/10 05:41:29;;;;;;;;;;;3.50;81.70;;;;;;5013226;28;19971;-79
2021/12/10 05:43:54;;;;;;;;;;;3.50;81.80;;;;;;5009638;28;19914;-79
2021/12/10 05:46:19;;;;;;;;;;;3.50;81.40;;;;;;5008384;28;20616;-79
2021/12/10 05:48:45;;;;;;;;;;;3.40;81.40;;;;;;5009949;28;19988;-78
2021/12/10 05:51:11;;;;;;;;;;;3.40;82.20;;;;;;5009766;28;20259;-79
2021/12/10 05:53:37;;;;;;;;;;;3.30;81.60;;;;;;5024811;28;19914;-78
2021/12/10 05:56:04;;;;;;;;;;;3.50;81.40;;;;;;5009309;28;19913;-79
2021/12/10 05:58:29;;;;;;;;;;;3.40;81.50;;;;;;5009426;28;20313;-78
2021/12/10 06:01:02;;;;;;;;;;;3.40;81.40;;;;;;5009181;28;19956;-79
2021/12/10 06:03:28;;;;;;;;;;;3.50;81.40;;;;;;5025075;28;19933;-78
2021/12/10 06:05:53;;;;;;;;;;;3.50;81.30;;;;;;5008955;28;19918;-79
2021/12/10 06:08:19;;;;;;;;;;;3.50;81.10;;;;;;5009206;28;19909;-78
2021/12/10 06:10:46;;;;;;;;;;;3.50;80.90;;;;;;5025655;28;19921;-78
2021/12/10 06:13:12;;;;;;;;;;;3.60;80.10;;;;;;5012071;28;19913;-78
2021/12/10 06:15:37;;;;;;;;;;;3.40;81.00;;;;;;5013556;28;19916;-78
2021/12/10 06:18:03;;;;;;;;;;;3.50;80.70;;;;;;5012477;28;19924;-78
2021/12/10 06:20:31;;;;;;;;;;;3.50;80.70;;;;;;5013483;28;19936;-79
2021/12/10 06:22:59;;;;;;;;;;;3.50;80.50;;;;;;5014533;28;19913;-79
2021/12/10 06:25:26;;;;;;;;;;;3.40;80.50;;;;;;5014432;28;19932;-79
2021/12/10 06:27:51;;;;;;;;;;;3.50;80.10;;;;;;5013838;28;19913;-79
2021/12/10 06:30:19;;;;;;;;;;;3.60;79.80;;;;;;5031576;28;19909;-79
2021/12/10 06:32:45;;;;;;;;;;;3.60;80.00;;;;;;5013898;28;20394;-79
2021/12/10 06:35:11;;;;;;;;;;;3.50;80.40;;;;;;5029306;28;20381;-78
2021/12/10 06:37:38;;;;;;;;;;;3.40;80.50;;;;;;5013189;28;19914;-80
2021/12/10 06:40:07;;;;;;;;;;;3.60;79.70;;;;;;5013812;28;20235;-80
2021/12/10 06:42:33;;;;;;;;;;;3.40;80.30;;;;;;5014356;28;20012;-79
2021/12/10 06:44:59;;;;;;;;;;;3.40;81.00;;;;;;5012736;28;20003;-79
2021/12/10 06:47:24;;;;;;;;;;;3.30;80.90;;;;;;5010344;28;19919;-79
2021/12/10 06:49:50;;;;;;;;;;;3.30;81.50;;;;;;5022787;28;20012;-78
2021/12/10 06:52:15;;;;;;;;;;;3.40;81.30;;;;;;5012075;28;19919;-78
2021/12/10 06:54:41;;;;;;;;;;;3.30;81.10;;;;;;5011725;28;20385;-79
2021/12/10 06:57:07;;;;;;;;;;;3.40;81.10;;;;;;5011508;28;19956;-78
2021/12/10 06:59:32;;;;;;;;;;;3.40;80.90;;;;;;5008881;28;19921;-78
2021/12/10 07:01:58;;;;;;;;;;;3.50;80.60;;;;;;5009296;28;19914;-79
2021/12/10 07:04:23;;;;;;;;;;;3.50;80.70;;;;;;5010660;28;19913;-78
2021/12/10 07:06:49;;;;;;;;;;;3.40;80.30;;;;;;5008733;28;19944;-78
2021/12/10 07:09:20;;;;;;;;;;;3.40;80.80;;;;;;5012699;28;19913;-78
2021/12/10 07:11:47;;;;;;;;;;;3.40;80.60;;;;;;5009808;28;20374;-78
2021/12/10 07:14:12;;;;;;;;;;;3.40;80.70;;;;;;5012166;28;19918;-79
2021/12/10 07:16:38;;;;;;;;;;;3.40;80.30;;;;;;5010980;28;20025;-79
2021/12/10 07:19:05;;;;;;;;;;;3.50;79.90;;;;;;5008466;28;19917;-78
2021/12/10 07:21:31;;;;;;;;;;;3.50;80.10;;;;;;5010768;28;20051;-79
2021/12/10 07:24:01;;;;;;;;;;;3.50;79.90;;;;;;5011790;28;19913;-79
2021/12/10 07:26:27;;;;;;;;;;;3.60;79.60;;;;;;5011769;28;19914;-80
2021/12/10 07:28:53;;;;;;;;;;;3.50;79.60;;;;;;5011171;28;19924;-79
2021/12/10 07:31:18;;;;;;;;;;;3.50;79.90;;;;;;5028653;28;20292;-80
2021/12/10 07:33:44;;;;;;;;;;;3.30;80.30;;;;;;5011246;28;19964;-80
2021/12/10 07:36:10;;;;;;;;;;;3.30;80.10;;;;;;5013066;28;19913;-80
2021/12/10 07:38:35;;;;;;;;;;;3.30;80.50;;;;;;5013374;28;19921;-81
2021/12/10 07:41:01;;;;;;;;;;;3.30;80.30;;;;;;5012148;28;20017;-80
2021/12/10 07:43:27;;;;;;;;;;;3.30;80.20;;;;;;5014745;28;19926;-80
2021/12/10 07:45:52;;;;;;;;;;;3.40;79.90;;;;;;5013002;28;19926;-81
2021/12/10 07:48:20;;;;;;;;;;;3.30;79.80;;;;;;5012804;28;19960;-80
2021/12/10 07:50:58;;;;;;;;;;;3.30;80.00;;;;;;5014095;28;19913;-81
2021/12/10 07:53:25;;;;;;;;;;;3.40;79.60;;;;;;5028471;28;19913;-81
2021/12/10 07:55:50;;;;;;;;;;;3.50;79.40;;;;;;5019247;28;19913;-81
2021/12/10 07:58:16;;;;;;;;;;;3.40;79.50;;;;;;5011610;28;20334;-81
2021/12/10 08:00:43;;;;;;;;;;;3.30;79.40;;;;;;5025538;28;19956;-81
2021/12/10 08:03:09;;;;;;;;;;;3.50;79.50;;;;;;5028646;28;20325;-81
2021/12/10 08:05:37;;;;;;;;;;;3.60;78.80;;;;;;5011202;28;21330;-81
2021/12/10 08:08:03;;;;;;;;;;;3.50;78.50;;;;;;5009995;28;19914;-81
2021/12/10 08:10:29;;;;;;;;;;;3.50;79.10;;;;;;5010833;28;19913;-80
2021/12/10 08:12:54;;;;;;;;;;;3.50;79.40;;;;;;5012676;28;19917;-80
2021/12/10 08:15:20;;;;;;;;;;;3.50;79.50;;;;;;5011277;28;19914;-80
2021/12/10 08:17:46;;;;;;;;;;;3.50;79.40;;;;;;5013481;28;19914;-81
2021/12/10 08:20:13;;;;;;;;;;;3.60;79.40;;;;;;5014460;28;20016;-81
2021/12/10 08:22:39;;;;;;;;;;;3.50;78.60;;;;;;5011918;28;19992;-80
2021/12/10 08:25:05;;;;;;;;;;;3.40;78.80;;;;;;5009932;28;19921;-79
2021/12/10 08:27:31;;;;;;;;;;;3.50;79.80;;;;;;5012719;28;19914;-80
2021/12/10 08:30:02;;;;;;;;;;;3.50;79.30;;;;;;5011395;28;19920;-81
2021/12/10 08:32:29;;;;;;;;;;;3.50;79.00;;;;;;5014598;28;19928;-80
2021/12/10 08:34:54;;;;;;;;;;;3.60;78.90;;;;;;5010235;28;19913;-81
2021/12/10 08:37:20;;;;;;;;;;;3.60;78.70;;;;;;5008160;28;19960;-81
2021/12/10 08:39:46;;;;;;;;;;;3.60;79.40;;;;;;5011806;28;19925;-81
2021/12/10 08:42:13;;;;;;;;;;;3.80;78.60;;;;;;5013137;28;19948;-81
2021/12/10 08:44:38;;;;;;;;;;;3.80;79.10;;;;;;5025939;28;19920;-81
2021/12/10 08:47:04;;;;;;;;;;;4.00;78.30;;;;;;5010198;28;20297;-81
2021/12/10 08:49:29;;;;;;;;;;;3.90;78.40;;;;;;5012293;28;19961;-81
2021/12/10 08:51:57;;;;;;;;;;;4.00;77.90;;;;;;5015697;28;19997;-80
2021/12/10 08:54:25;;;;;;;;;;;3.90;77.80;;;;;;5011803;28;20305;-80
2021/12/10 08:56:50;;;;;;;;;;;4.10;77.80;;;;;;5010736;28;20358;-83
2021/12/10 08:59:16;;;;;;;;;;;4.00;77.90;;;;;;5026128;28;19949;-81
2021/12/10 09:01:45;;;;;;;;;;;4.10;77.70;;;;;;5017833;28;19955;-80
2021/12/10 09:04:12;;;;;;;;;;;4.10;77.10;;;;;;5016768;28;19920;-81
2021/12/10 09:06:39;;;;;;;;;;;4.20;76.70;;;;;;5017199;28;19921;-81
2021/12/10 09:09:06;;;;;;;;;;;4.30;75.80;;;;;;5019616;28;19909;-81
2021/12/10 09:11:32;;;;;;;;;;;4.20;76.40;;;;;;5021254;28;20063;-79
2021/12/10 09:13:57;;;;;;;;;;;4.10;75.90;;;;;;5023116;28;19922;-81
2021/12/10 09:16:26;;;;;;;;;;;4.10;76.30;;;;;;5034111;28;19967;-80
2021/12/10 09:18:54;;;;;;;;;;;4.30;76.10;;;;;;5013781;28;20345;-79
2021/12/10 09:21:20;;;;;;;;;;;4.30;76.10;;;;;;5011013;28;19952;-80
2021/12/10 09:23:45;;;;;;;;;;;4.60;74.90;;;;;;5010588;28;19928;-81
2021/12/10 09:26:14;;;;;;;;;;;4.50;75.30;;;;;;5012116;28;19913;-81
2021/12/10 09:28:42;;;;;;;;;;;4.50;75.90;;;;;;5015659;28;19939;-80
2021/12/10 09:31:07;;;;;;;;;;;4.50;75.80;;;;;;5027630;28;20040;-80
2021/12/10 09:33:33;;;;;;;;;;;4.50;75.10;;;;;;5013920;28;20378;-80
2021/12/10 09:35:58;;;;;;;;;;;4.60;75.00;;;;;;5012748;28;20047;-80
2021/12/10 09:38:24;;;;;;;;;;;4.70;74.50;;;;;;5011113;28;20266;-80
2021/12/10 09:40:52;;;;;;;;;;;4.60;73.90;;;;;;5012647;28;19965;-80
2021/12/10 09:43:19;;;;;;;;;;;4.70;74.80;;;;;;5011605;28;19940;-80
2021/12/10 09:45:45;;;;;;;;;;;4.80;73.90;;;;;;5028818;28;19965;-82
2021/12/10 09:48:12;;;;;;;;;;;4.80;74.50;;;;;;5015380;28;19913;-80
2021/12/10 09:50:50;;;;;;;;;;;4.70;75.00;;;;;;5015995;28;19937;-81
2021/12/10 09:53:17;;;;;;;;;;;4.90;74.30;;;;;;5017405;28;19964;-81
2021/12/10 09:55:44;;;;;;;;;;;4.90;73.90;;;;;;5016949;28;20382;-81
2021/12/10 09:58:09;;;;;;;;;;;5.10;73.90;;;;;;5014413;28;19975;-80
2021/12/10 10:00:35;;;;;;;;;;;5.20;73.20;;;;;;5017523;28;20339;-80
2021/12/10 10:03:02;;;;;;;;;;;5.10;73.20;;;;;;5016449;28;19914;-80
2021/12/10 10:05:29;;;;;;;;;;;5.20;73.60;;;;;;5015805;28;20000;-80
2021/12/10 10:07:57;;;;;;;;;;;5.20;73.30;;;;;;5014274;28;19917;-80
2021/12/10 10:10:24;;;;;;;;;;;5.10;73.00;;;;;;5030427;28;19917;-80
2021/12/10 10:12:50;;;;;;;;;;;5.20;72.50;;;;;;5015351;28;19913;-80
2021/12/10 10:15:18;;;;;;;;;;;5.10;73.10;;;;;;5029565;28;20296;-80
2021/12/10 10:17:44;;;;;;;;;;;5.10;71.90;;;;;;5015523;28;20480;-79
2021/12/10 10:20:11;;;;;;;;;;;5.20;72.70;;;;;;5012864;28;20000;-81
2021/12/10 10:22:36;;;;;;;;;;;5.10;72.30;;;;;;5014849;28;19921;-80
2021/12/10 10:25:03;;;;;;;;;;;5.30;72.10;;;;;;5017287;28;19917;-80
2021/12/10 10:27:30;;;;;;;;;;;5.10;71.80;;;;;;5011896;28;19914;-80
2021/12/10 10:29:58;;;;;;;;;;;5.10;71.00;;;;;;5012772;28;19921;-81
2021/12/10 10:32:26;;;;;;;;;;;5.10;71.60;;;;;;5015409;28;19909;-80
2021/12/10 10:35:01;;;;;;;;;;;5.10;72.70;;;;;;5016049;28;19917;-80
2021/12/10 10:37:26;;;;;;;;;;;5.10;71.60;;;;;;5016272;28;19929;-84
2021/12/10 10:39:52;;;;;;;;;;;5.10;71.40;;;;;;5015166;28;19917;-84
2021/12/10 10:42:20;;;;;;;;;;;5.10;71.40;;;;;;5016541;28;19910;-85
2021/12/10 10:44:46;;;;;;;;;;;5.00;71.10;;;;;;5011416;28;19976;-82
2021/12/10 10:47:11;;;;;;;;;;;5.10;70.70;;;;;;5015614;28;20114;-81
2021/12/10 10:49:42;;;;;;;;;;;5.10;70.80;;;;;;5014579;28;20311;-82
2021/12/10 10:52:34;;;;;;;;;;;5.00;71.50;;;;;;5014631;28;19944;-83
2021/12/10 10:55:14;;;;;;;;;;;5.00;71.40;;;;;;5010005;28;19913;-83
2021/12/10 10:57:47;;;;;;;;;;;5.00;71.00;;;;;;5006897;28;19948;-83
2021/12/10 11:00:16;;;;;;;;;;;5.10;70.80;;;;;;5011911;28;20093;-82
2021/12/10 11:02:49;;;;;;;;;;;5.10;70.80;;;;;;5012730;28;20012;-82
2021/12/10 11:05:15;;;;;;;;;;;5.20;70.70;;;;;;5016601;28;20404;-83
2021/12/10 11:07:49;;;;;;;;;;;5.30;69.60;;;;;;5016757;28;19913;-83
2021/12/10 11:10:22;;;;;;;;;;;5.20;69.10;;;;;;5011674;28;20266;-81
2021/12/10 11:12:48;;;;;;;;;;;5.20;69.20;;;;;;5014782;28;19965;-83
2021/12/10 11:15:16;;;;;;;;;;;5.30;69.40;;;;;;5012599;28;20362;-81
2021/12/10 11:17:43;;;;;;;;;;;5.30;67.70;;;;;;5011063;28;20388;-81
2021/12/10 11:20:20;;;;;;;;;;;5.40;68.50;;;;;;5013413;28;19948;-81
2021/12/10 11:22:48;;;;;;;;;;;5.40;68.50;;;;;;5001945;28;19916;-82
2021/12/10 11:25:15;;;;;;;;;;;5.50;68.70;;;;;;5007499;28;19944;-83
2021/12/10 11:27:43;;;;;;;;;;;5.30;69.80;;;;;;5015499;28;20004;-82
2021/12/10 11:30:12;;;;;;;;;;;5.40;70.30;;;;;;5013268;28;19979;-82
2021/12/10 11:32:43;;;;;;;;;;;5.50;69.80;;;;;;5015218;28;19914;-81
2021/12/10 11:35:20;;;;;;;;;;;5.40;70.10;;;;;;5016073;28;19917;-82
2021/12/10 11:38:00;;;;;;;;;;;5.50;70.20;;;;;;5005501;28;19909;-82
2021/12/10 11:40:34;;;;;;;;;;;5.50;70.80;;;;;;5014019;28;20007;-81
2021/12/10 11:46:26;;;;;;;;;;;5.70;69.40;;;;;;5014272;28;19910;-82
2021/12/10 11:49:03;;;;;;;;;;;5.80;69.80;;;;;;5013974;28;19967;-82
2021/12/10 11:51:30;;;;;;;;;;;5.80;68.50;;;;;;5016415;28;20013;-82
2021/12/10 11:53:59;;;;;;;;;;;6.00;68.70;;;;;;5020573;28;19909;-83
2021/12/10 11:56:27;;;;;;;;;;;6.10;68.10;;;;;;5017055;28;19913;-83
2021/12/10 11:59:11;;;;;;;;;;;6.30;67.00;;;;;;5011932;28;20183;-83
2021/12/10 12:01:46;;;;;;;;;;;6.30;67.50;;;;;;5018810;28;19924;-82
2021/12/10 12:04:20;;;;;;;;;;;6.20;67.60;;;;;;5016855;28;19913;-82
2021/12/10 12:06:49;;;;;;;;;;;6.10;67.80;;;;;;5008644;28;19918;-83
2021/12/10 12:09:28;;;;;;;;;;;6.00;66.70;;;;;;5016555;28;19996;-83
2021/12/10 12:12:20;;;;;;;;;;;6.10;67.90;;;;;;5014598;28;20385;-83
2021/12/10 12:14:54;;;;;;;;;;;6.20;67.90;;;;;;5008591;28;19952;-83
2021/12/10 12:17:30;;;;;;;;;;;6.10;67.10;;;;;;5037020;28;19984;-83
2021/12/10 12:19:56;;;;;;;;;;;6.40;68.30;;;;;;5013172;28;19932;-83
2021/12/10 12:25:23;;;;;;;;;;;6.50;65.90;;;;;;5013552;28;19921;-83
2021/12/10 12:28:15;;;;;;;;;;;6.60;66.60;;;;;;5009037;28;19914;-82
2021/12/10 12:30:50;;;;;;;;;;;6.60;65.60;;;;;;5002053;28;20297;-82
2021/12/10 12:33:15;;;;;;;;;;;6.60;65.50;;;;;;5023761;28;19917;-83
2021/12/10 12:35:41;;;;;;;;;;;6.60;65.60;;;;;;5003840;28;20362;-83
2021/12/10 12:38:17;;;;;;;;;;;6.70;66.20;;;;;;5012874;28;19913;-82
2021/12/10 12:40:44;;;;;;;;;;;6.90;66.30;;;;;;5012735;28;20279;-83
2021/12/10 12:43:10;;;;;;;;;;;6.80;62.90;;;;;;5012347;28;19933;-83
2021/12/10 12:45:37;;;;;;;;;;;6.60;63.40;;;;;;5015116;28;20345;-84
2021/12/10 12:48:04;;;;;;;;;;;6.70;62.70;;;;;;5005250;28;19926;-83
2021/12/10 12:50:31;;;;;;;;;;;6.70;63.20;;;;;;5010047;28;19913;-83
2021/12/10 12:52:57;;;;;;;;;;;6.60;62.50;;;;;;5003906;28;20145;-82
2021/12/10 12:55:29;;;;;;;;;;;6.60;63.80;;;;;;5010342;28;20037;-82
2021/12/10 12:57:57;;;;;;;;;;;6.50;62.90;;;;;;5009922;28;20262;-82
2021/12/10 13:00:26;;;;;;;;;;;6.60;63.00;;;;;;5010325;28;19922;-81
2021/12/10 13:02:54;;;;;;;;;;;6.50;62.20;;;;;;5007699;28;19929;-83
2021/12/10 13:05:29;;;;;;;;;;;6.50;62.20;;;;;;5002286;28;19932;-81
2021/12/10 13:08:05;;;;;;;;;;;6.50;61.90;;;;;;5011468;28;19967;-83
2021/12/10 13:10:33;;;;;;;;;;;6.40;62.60;;;;;;5020540;28;19956;-83
2021/12/10 13:13:10;;;;;;;;;;;6.30;63.20;;;;;;5015562;28;19909;-83
2021/12/10 13:15:37;;;;;;;;;;;6.60;61.90;;;;;;5009337;28;19922;-84
2021/12/10 13:18:05;;;;;;;;;;;6.50;62.40;;;;;;5009062;28;19913;-83
2021/12/10 13:20:34;;;;;;;;;;;6.60;62.10;;;;;;5011815;28;19917;-83
2021/12/10 13:23:01;;;;;;;;;;;6.60;61.30;;;;;;5030626;28;19964;-82
2021/12/10 13:25:29;;;;;;;;;;;6.50;61.70;;;;;;5015650;28;19913;-82
2021/12/10 13:27:57;;;;;;;;;;;6.40;62.70;;;;;;5008664;28;19910;-83
2021/12/10 13:30:31;;;;;;;;;;;6.50;63.30;;;;;;5018173;28;19948;-82
2021/12/10 13:32:57;;;;;;;;;;;6.50;62.20;;;;;;5007662;28;19936;-83
2021/12/10 13:35:24;;;;;;;;;;;6.50;62.30;;;;;;5008995;28;20390;-82
2021/12/10 13:37:51;;;;;;;;;;;6.40;61.60;;;;;;5009710;28;19972;-83
2021/12/10 13:40:17;;;;;;;;;;;6.20;60.60;;;;;;5009296;28;19918;-82
2021/12/10 13:42:43;;;;;;;;;;;6.10;62.40;;;;;;5010357;28;20385;-82
2021/12/10 13:45:09;;;;;;;;;;;6.00;62.70;;;;;;5009675;28;19917;-82
2021/12/10 13:47:40;;;;;;;;;;;6.00;63.50;;;;;;5010556;28;19914;-81
2021/12/10 13:50:16;;;;;;;;;;;6.20;62.80;;;;;;5009762;28;19910;-81
2021/12/10 13:52:41;;;;;;;;;;;6.10;63.10;;;;;;5021054;28;19925;-82
2021/12/10 13:55:13;;;;;;;;;;;6.10;63.40;;;;;;5026049;28;19973;-82
2021/12/10 13:57:38;;;;;;;;;;;6.00;63.10;;;;;;5027486;28;20384;-81
2021/12/10 14:00:06;;;;;;;;;;;6.00;62.50;;;;;;5029253;28;19917;-81
2021/12/10 14:02:39;;;;;;;;;;;5.80;63.20;;;;;;5029915;28;20005;-82
2021/12/10 14:05:16;;;;;;;;;;;5.70;63.40;;;;;;5027204;28;20027;-82
2021/12/10 14:07:50;;;;;;;;;;;5.80;63.30;;;;;;5025979;28;19948;-83
2021/12/10 14:10:30;;;;;;;;;;;5.90;63.50;;;;;;5020925;28;19914;-82
2021/12/10 14:12:57;;;;;;;;;;;5.90;63.80;;;;;;5019883;28;20577;-81
2021/12/10 14:15:44;;;;;;;;;;;5.90;63.70;;;;;;5023634;28;19917;-81
2021/12/10 14:18:14;;;;;;;;;;;5.80;63.50;;;;;;5026050;28;19993;-82
2021/12/10 14:20:46;;;;;;;;;;;5.80;65.10;;;;;;5024154;28;19913;-82
2021/12/10 14:23:18;;;;;;;;;;;5.80;64.50;;;;;;5014256;28;19913;-82
2021/12/10 14:25:52;;;;;;;;;;;5.80;64.70;;;;;;5009909;28;19968;-82
2021/12/10 14:28:20;;;;;;;;;;;5.80;63.40;;;;;;5009670;28;19917;-82
2021/12/10 14:30:47;;;;;;;;;;;5.80;64.30;;;;;;5009544;28;19991;-82
2021/12/10 14:33:12;;;;;;;;;;;5.80;64.60;;;;;;5019586;28;19925;-82
2021/12/10 14:35:41;;;;;;;;;;;6.00;63.00;;;;;;5020561;28;19914;-82
2021/12/10 14:38:07;;;;;;;;;;;6.00;63.70;;;;;;5027349;28;20017;-81
2021/12/10 14:40:38;;;;;;;;;;;5.90;64.30;;;;;;5026213;28;19920;-82
2021/12/10 14:43:22;;;;;;;;;;;5.90;64.20;;;;;;5016847;28;19976;-81
2021/12/10 14:46:07;;;;;;;;;;;6.00;65.00;;;;;;5019703;28;19992;-81
2021/12/10 14:48:33;;;;;;;;;;;5.90;65.30;;;;;;5022312;28;19913;-82
2021/12/10 14:51:01;;;;;;;;;;;6.00;63.90;;;;;;5013147;28;19914;-81
2021/12/10 14:53:32;;;;;;;;;;;6.00;64.00;;;;;;5014705;28;19923;-81